Fall River Mills, CA (96028)

1:48 AM PDT on October 01, 2014 (GMT -0700)
Glenburn | Change Station
CLOSE
Current Station
Personal Weather Station
Location: Fall River Mills, CA
Elevation: 3347 ft
Nearby Weather Stations

Elev 3347 ft 41.08 °N, 121.54 °W | Updated 3 seconds ago

Clear
Clear
44.2 °F
Feels Like 44 °F
N
0.0
Wind Variable Wind from ENE
Gusts 0.0 mph

Today
High -- | Low -- °F
--% Chance of Precip.
Yesterday
High -- | Low -- °F
Precip. -- in
7:02 AM 6:47 PM
Waxing Crescent, 45% visible
Pressure 30.14 in
Visibility 10.0 miles
Clouds Clear
Windchill 44 °F
Dew Point 32 °F
Humidity 62%
Rainfall 0.00 in
Snow Depth Not available.
UV 0 out of 12
Pollen 5.80 out of 12
Air Quality Not available.
Flu Activity Not available.
METAR KMHS 010756Z AUTO 03005KT 10SM CLR 08/04 A3012 RMK AO2 SLP207 T00830039 401670078

More Conditions Fewer Conditions

Pressure 30.14 in
Visibility 10.0 miles
Clouds Clear
Windchill 44 °F
Dew Point 32 °F
Humidity 62%
Rainfall 0.00 in
Snow Depth Not available.
UV 0 out of 12
Pollen 5.80 out of 12
Air Quality Not available.
Flu Activity Not available.
METAR KMHS 010756Z AUTO 03005KT 10SM CLR 08/04 A3012 RMK AO2 SLP207 T00830039 401670078

More Conditions Fewer Conditions

10-Day Weather Forecast

Almanac

Astronomy

Oct. 01, 2014 Rise Set
Actual Time 7:02 AM PDT 6:47 PM PDT
Civil Twilight 6:35 AM PDT 7:15 PM PDT
Nautical Twilight 6:03 AM PDT 7:46 PM PDT
Astronomical Twilight 5:31 AM PDT 8:19 PM PDT
Moon 2:10 PM PDT No Moon Set
Length of Visible Light 12h 39m
Length of Day
11h 45m
Tomorrow will be 2m 42s shorter.
Waxing Crescent, 45% of the Moon is Illuminated
Today
Waxing Crescent
Oct 1
First Quarter
Oct 8
Full
Oct 15
Last Quarter
Oct 23
New

Today's Extremes

State Highs State Lows

Community

WunderPhotos

Upload Photos

1,757,902 photos uploaded!

Nearby

Snow Depth

Station Depth Elevation
Poison Flat 0 in 7900 ft
Echo Peak 1 in 7800 ft
Squaw Valley 0 in 8200 ft
Spratt Creek 1 in 6200 ft
Fallen Leaf 0 in 6300 ft

Earthquake Activity

City Distance Mag. Time & Date
No recent earthquake activity has been reported nearby.
Minimum magnitude displayed is 2.5.

Coastal Water Temperatures

Place Temperature
No Stations Reporting

Nearby Weather Stations